Aérodrome :
LOGIN :

S'inscrire | Disclaimer

   EN    FR    IT 

 










Légende :    VFR   VFR Marginal   IFR   IFR Intensif   IFR Très Intensif
Visi : 
Plafond : 
>= 8 km
>= 3000ft
5 à 8 km
1000 à 3000 ft
1500m à 5 km
500 à 1000 ft
800 à 1500m
200 à 500 ft
< 800m
< 200 ft
Symboles :   Orages  Brouillard  Fortes neiges  Fortes précipitations  Vent > 20 kt
SIGMETs :   Divers  Orages  Givrage  Turbulence  Onde Orograph.  Cendres Volcan.







- Altitude de l'aérodrome : 856 ft
- Code IATA : VGO


LEVX - Vigo Peinador

DERNIER METAR :
  • 260830Z 06004KT 360V100 CAVOK 17/12 Q1022 NOSIG

METARs EXPIRÉS :
  • 260800Z VRB02KT CAVOK 16/11 Q1022 NOSIG
  • 260730Z 05003KT 010V110 CAVOK 15/11 Q1022 NOSIG
  • 260700Z VRB01KT CAVOK 15/11 Q1022 NOSIG
  • 260630Z VRB01KT CAVOK 13/11 Q1022 NOSIG
  • 260600Z VRB02KT CAVOK 12/11 Q1022 NOSIG

TAF TAF LEVX
Valide du 26 à 06h jusqu'au 27 à 06h UTC


260500Z 2606/2706 03008KT CAVOK TX24/2614Z TN10/2606Z
TEMPO 2612/2619 33010KT
Pas de NOTAMs connus pour ce terrain.



MET'MAP, la Météo Aéronautique d'un coup d'oeil ! - Copyright ORBIFLY Décembre 2007 - Disclaimer

ORBIFLY MET'MAP TEAM :

Programmation & Développement : Alexandra Zaïnal
Conception & Développement : Baudouin d'Aumeries
Co-Programmation & Développement : Marc-Olivier Méhu
Soutien technique & logistique : Manuel Goepfert

Contact : metmap@orbifly.com




SOURCES & CREDITS :

   NOAA